MSV weather

Sullivan County International Airport
Monticello, New York, United States

Public forecast

Using degrees Fahrenheit for public forecast. Weather courtesy of forecast.io.

METAR (pilot weather report)

Retrieved 2019/05/21 03:56 UTC (25 minutes ago):

KMSV 210356Z AUTO 29015G23KT 10SM FEW033 13/07 A2988 RMK AO2 SLP112 T01330067

TAF (pilot weather forecast)

Forecast is more than 12 hours old.

Closest forecast is Stewart International Airport, 33.2 nm (61.4 km) ESE. Retrieved 2019/05/20 00:24 UTC (1 day ago):

TAF KSWF 202323Z 2100/2206 26010KT P6SM SCT040 SCT100 FM210100 29012G20KT P6SM FEW035 SCT250 FM210400 30010KT P6SM SCT250 FM210900 30014G20KT P6SM FEW035 SCT250 FM211500 31018G26KT P6SM FEW250 FM220000 32012G19KT P6SM FEW250 FM220300 32010KT P6SM SKC AMD NOT SKED